Time;durP1;ratioP1;P1;durP2;ratioP2;P2;SDS_P1;SDS_P2;PMS_P1;PMS_P2;Temp;Humidity;BMP_temperature;BMP_pressure;BME280_temperature;BME280_humidity;BME280_pressure;Samples;Min_cycle;Max_cycle;Signal;HPM_P1;HPM_P2
2021/04/05 10:04:09;;;;;;;12.32;2.13;;;;;;;19.37;34.23;101396.06;5113996;27;250601;-53
2021/04/05 12:12:17;;;;;;;6.07;1.60;;;;;;;5.57;37.46;101555.38;5061542;27;20438;-73
2021/04/05 12:14:44;;;;;;;4.18;1.58;;;;;;;4.57;40.87;101579.84;5041912;28;20299;-72
2021/04/05 12:17:10;;;;;;;6.82;1.58;;;;;;;3.90;49.22;101619.94;5051479;28;20053;-72
2021/04/05 12:19:38;;;;;;;2.88;1.35;;;;;;;3.16;53.89;101599.00;5067100;28;20071;-72
2021/04/05 12:22:06;;;;;;;3.63;1.30;;;;;;;3.15;55.17;101628.91;5034926;28;75886;-72
2021/04/05 12:24:34;;;;;;;6.82;1.38;;;;;;;2.47;63.01;101634.19;5032653;28;200651;-71
2021/04/05 12:27:04;;;;;;;2.58;1.40;;;;;;;1.85;65.44;101634.13;5047280;28;20071;-72
2021/04/05 12:29:32;;;;;;;6.55;1.67;;;;;;;1.68;64.45;101638.22;5042689;28;20067;-72
2021/04/05 12:34:30;;;;;;;3.88;1.10;;;;;;;1.30;68.56;101657.72;5017266;27;20414;-71
2021/04/05 12:36:59;;;;;;;3.20;1.10;;;;;;;0.95;70.44;101633.38;4991927;28;20069;-71
2021/04/05 12:39:31;;;;;;;3.55;1.08;;;;;;;0.86;69.59;101623.56;5000934;28;20061;-71
2021/04/05 12:41:59;;;;;;;3.83;1.65;;;;;;;1.52;70.11;101633.59;5011079;28;20467;-71
2021/04/05 12:44:28;;;;;;;3.17;1.33;;;;;;;1.67;69.96;101653.16;5002770;28;20065;-71
2021/04/05 12:46:58;;;;;;;3.15;1.17;;;;;;;1.66;69.90;101655.75;5004083;28;204794;-71
2021/04/05 12:49:27;;;;;;;4.28;1.05;;;;;;;1.04;72.21;101661.56;5004450;28;20066;-71
2021/04/05 12:51:58;;;;;;;1.13;0.85;;;;;;;0.79;74.52;101657.59;5005087;28;20490;-70
2021/04/05 12:54:27;;;;;;;1.50;0.90;;;;;;;0.73;76.28;101651.34;5007171;28;20058;-71
2021/04/05 12:56:57;;;;;;;4.95;1.10;;;;;;;0.74;76.36;101657.47;5007176;28;20066;-70
2021/04/05 12:59:26;;;;;;;1.33;0.68;;;;;;;0.73;77.13;101646.09;5006414;28;20065;-70
2021/04/05 13:01:55;;;;;;;4.68;1.42;;;;;;;0.81;76.59;101651.47;5001975;28;20058;-70
2021/04/05 13:04:26;;;;;;;4.47;1.80;;;;;;;0.92;74.71;101649.09;5014349;28;20058;-71
2021/04/05 13:06:59;;;;;;;4.72;2.08;;;;;;;1.21;72.88;101631.28;5011995;28;20097;-71
2021/04/05 13:09:35;;;;;;;9.77;1.65;;;;;;;1.79;71.61;101631.41;5007869;28;20062;-71
2021/04/05 13:12:09;;;;;;;4.88;1.88;;;;;;;2.40;70.74;101636.75;5006443;28;20065;-70
2021/04/05 13:14:44;;;;;;;6.07;2.00;;;;;;;2.82;67.46;101613.56;5006628;28;20053;-70
2021/04/05 13:17:14;;;;;;;8.50;1.50;;;;;;;3.13;64.29;101613.91;5007468;28;20107;-70
2021/04/05 13:19:45;;;;;;;2.30;1.13;;;;;;;3.30;60.00;101617.66;5005528;28;20171;-70
2021/04/05 13:22:15;;;;;;;7.25;1.88;;;;;;;3.31;57.50;101626.44;5007173;28;20137;-71
2021/04/05 13:24:49;;;;;;;4.25;2.00;;;;;;;3.44;56.56;101619.50;5003453;28;20054;-71
2021/04/05 13:27:22;;;;;;;3.45;1.30;;;;;;;3.50;57.68;101640.69;4999012;28;20062;-71
2021/04/05 13:29:51;;;;;;;9.82;1.45;;;;;;;3.46;55.24;101616.03;5002950;28;20459;-71
2021/04/05 13:32:23;;;;;;;4.47;1.25;;;;;;;3.28;56.03;101624.63;5004683;28;20053;-71
2021/04/05 13:34:58;;;;;;;3.15;1.10;;;;;;;3.69;58.40;101628.53;5005311;28;20057;-71
2021/04/05 13:37:27;;;;;;;3.13;1.25;;;;;;;3.22;60.75;101623.69;5004840;28;20100;-70
2021/04/05 13:39:54;;;;;;;4.50;1.80;;;;;;;2.61;62.50;101665.13;5004828;28;20062;-70
2021/04/05 13:42:25;;;;;;;1.10;0.80;;;;;;;1.18;72.12;101688.16;5004635;28;20057;-72
2021/04/05 13:44:57;;;;;;;1.05;0.80;;;;;;;0.52;74.74;101699.03;4995516;28;20058;-70
2021/04/05 13:47:25;;;;;;;2.70;0.85;;;;;;;0.51;76.38;101698.97;4992045;28;20133;-70
2021/04/05 13:49:55;;;;;;;4.95;1.45;;;;;;;0.69;75.93;101678.38;4989413;28;20499;-69
2021/04/05 13:52:23;;;;;;;4.13;2.17;;;;;;;0.97;74.80;101663.22;4993658;28;20054;-69
2021/04/05 13:54:55;;;;;;;3.45;1.17;;;;;;;1.05;70.61;101658.97;4990066;28;20089;-69
2021/04/05 13:57:22;;;;;;;6.47;2.25;;;;;;;1.27;68.52;101669.94;4993110;28;20068;-70
2021/04/05 14:00:04;;;;;;;6.57;1.60;;;;;;;1.73;67.46;101655.00;5004004;28;20066;-69
2021/04/05 14:02:33;;;;;;;3.72;1.60;;;;;;;2.30;63.10;101658.56;4994907;28;20160;-70
2021/04/05 14:05:03;;;;;;;6.43;1.55;;;;;;;2.68;62.75;101658.19;4988493;28;20448;-71
2021/04/05 14:07:34;;;;;;;9.73;1.95;;;;;;;2.77;59.90;101657.44;4991616;28;21038;-69
2021/04/05 14:10:05;;;;;;;10.05;1.90;;;;;;;3.10;62.10;101666.63;4988453;28;20148;-70
2021/04/05 14:12:36;;;;;;;3.95;1.85;;;;;;;2.88;63.22;101673.38;4991825;28;20166;-70
2021/04/05 14:15:04;;;;;;;6.22;2.30;;;;;;;2.83;63.26;101672.44;4989597;28;21149;-70
2021/04/05 14:17:33;;;;;;;5.68;1.83;;;;;;;2.75;63.12;101688.16;4992134;28;20072;-70
2021/04/05 14:20:05;;;;;;;5.30;2.03;;;;;;;2.80;60.84;101681.22;4986575;28;20065;-72
2021/04/05 14:22:35;;;;;;;3.83;1.10;;;;;;;2.62;61.57;101687.09;4978391;28;208710;-73
2021/04/05 14:25:16;;;;;;;4.63;1.42;;;;;;;2.77;62.21;101696.97;4986216;28;20084;-74
2021/04/05 14:27:46;;;;;;;2.92;1.45;;;;;;;3.09;60.65;101671.03;5010137;28;20298;-73
2021/04/05 14:30:18;;;;;;;2.35;1.08;;;;;;;2.87;57.57;101674.28;4991062;28;20096;-74
2021/04/05 14:32:51;;;;;;;2.50;1.05;;;;;;;3.12;58.60;101681.63;4991463;28;20061;-73
2021/04/05 14:35:25;;;;;;;4.53;1.25;;;;;;;3.18;56.68;101678.16;4990756;28;20072;-74
2021/04/05 14:38:01;;;;;;;1.67;0.90;;;;;;;3.21;55.95;101669.41;4990083;28;20090;-73
2021/04/05 14:40:33;;;;;;;3.60;2.10;;;;;;;3.55;56.31;101668.88;4990588;28;20476;-73
2021/04/05 14:43:02;;;;;;;6.18;1.63;;;;;;;3.56;58.03;101680.34;4986568;28;20083;-74
2021/04/05 14:45:30;;;;;;;4.07;1.35;;;;;;;2.36;65.60;101705.16;4990116;28;20061;-74
2021/04/05 14:47:59;;;;;;;4.60;1.17;;;;;;;2.04;67.80;101734.47;4985999;28;20058;-72
2021/04/05 14:50:28;;;;;;;2.95;1.35;;;;;;;1.63;68.75;101750.41;4992519;28;20058;-71
2021/04/05 14:52:59;;;;;;;1.25;1.10;;;;;;;0.42;76.88;101752.19;4984702;28;20506;-70
2021/04/05 14:55:31;;;;;;;2.95;1.60;;;;;;;0.51;78.26;101756.75;4991099;28;20061;-70
2021/04/05 14:58:00;;;;;;;2.80;0.85;;;;;;;0.08;80.22;101768.84;4986795;28;20054;-69
2021/04/05 15:00:30;;;;;;;2.20;1.13;;;;;;;-0.12;82.27;101773.56;4990953;28;63325;-68
2021/04/05 15:03:03;;;;;;;6.20;1.30;;;;;;;-0.12;83.22;101763.97;4987245;28;20494;-68
2021/04/05 15:05:38;;;;;;;1.10;1.02;;;;;;;0.01;82.70;101753.78;4992507;28;20760;-68
2021/04/05 15:08:07;;;;;;;3.65;1.63;;;;;;;0.22;80.14;101754.31;4986383;28;20322;-69
2021/04/05 15:10:37;;;;;;;3.83;1.55;;;;;;;0.46;79.38;101746.16;4994078;28;20064;-69
2021/04/05 15:13:08;;;;;;;5.38;1.70;;;;;;;0.59;77.15;101741.19;4985472;28;21082;-69
2021/04/05 15:15:38;;;;;;;5.80;1.98;;;;;;;0.93;76.98;101742.84;4990544;28;20069;-69
2021/04/05 15:18:07;;;;;;;4.15;1.80;;;;;;;0.98;77.47;101766.59;4988480;28;22127;-70
2021/04/05 15:20:38;;;;;;;5.65;2.30;;;;;;;0.09;81.99;101783.75;4993277;28;20400;-70
2021/04/05 15:23:26;;;;;;;9.82;2.13;;;;;;;0.09;81.99;101783.75;4988131;28;20056;-68
2021/04/05 15:27:00;;;;;;;8.60;2.35;;;;;;;-145.73;100.00;61044.97;4994227;28;20084;-71
2021/04/05 15:30:26;;;;;;;4.05;1.38;;;;;;;-145.73;100.00;61044.97;5005707;28;20628;-71
2021/04/05 15:33:53;;;;;;;5.85;1.75;;;;;;;-145.73;100.00;61044.97;4986890;28;26751;-71
2021/04/05 15:37:26;;;;;;;6.45;2.17;;;;;;;-145.73;100.00;61044.97;4993287;28;20370;-71
2021/04/05 15:40:53;;;;;;;8.73;3.70;;;;;;;-145.73;100.00;61044.97;4987699;28;20491;-71
2021/04/05 15:44:22;;;;;;;10.75;2.33;;;;;;;-145.73;100.00;61044.97;5000337;28;20057;-70
2021/04/05 15:47:55;;;;;;;6.68;2.25;;;;;;;-145.73;100.00;61044.97;4993698;28;20089;-70
2021/04/05 15:51:33;;;;;;;3.53;1.70;;;;;;;-145.73;100.00;61044.97;4985229;28;20068;-70
2021/04/05 15:54:04;;;;;;;9.02;2.53;;;;;;;0.93;71.69;101790.16;5025074;28;42072;-71
2021/04/05 15:56:34;;;;;;;6.28;1.95;;;;;;;0.66;71.98;101796.53;5027107;28;20063;-70
2021/04/05 15:59:04;;;;;;;9.60;2.35;;;;;;;0.43;75.16;101790.72;5033678;28;20987;-71
2021/04/05 16:01:35;;;;;;;5.63;1.70;;;;;;;0.35;75.38;101779.16;5027076;28;20067;-71
2021/04/05 16:04:13;;;;;;;5.55;2.13;;;;;;;0.34;76.42;101770.38;5031784;28;20497;-70
2021/04/05 16:06:48;;;;;;;8.02;2.45;;;;;;;0.43;76.78;101747.84;5022688;28;20065;-71
2021/04/05 16:09:18;;;;;;;9.55;2.22;;;;;;;0.64;77.07;101750.06;5033010;28;20061;-70
2021/04/05 16:11:52;;;;;;;13.00;2.80;;;;;;;0.84;75.07;101751.41;5038928;28;20345;-71
2021/04/05 16:14:20;;;;;;;;;;;;;;;1.01;73.25;101746.53;5031033;28;20057;-71
2021/04/05 16:16:55;;;;;;;10.63;2.95;;;;;;;1.20;72.87;101741.66;5024004;28;20423;-70
2021/04/05 16:19:25;;;;;;;9.50;2.33;;;;;;;1.35;70.92;101723.56;5033516;28;20064;-70
2021/04/05 16:21:56;;;;;;;9.43;2.90;;;;;;;1.48;69.31;101738.75;5023085;28;20064;-71
2021/04/05 16:24:27;;;;;;;9.07;2.35;;;;;;;1.53;67.26;101732.66;5032543;28;20311;-71
2021/04/05 16:27:00;;;;;;;4.05;2.00;;;;;;;1.57;66.67;101748.56;5023986;28;20092;-71
2021/04/05 16:29:31;;;;;;;9.67;3.20;;;;;;;1.43;69.99;101757.91;5031771;28;22233;-70
2021/04/05 16:32:01;;;;;;;7.18;1.77;;;;;;;1.23;72.48;101747.88;5024078;28;20455;-71
2021/04/05 16:34:30;;;;;;;15.00;2.90;;;;;;;1.21;72.08;101736.44;5028437;28;20052;-70
2021/04/05 16:37:04;;;;;;;8.10;2.25;;;;;;;1.39;67.63;101719.25;5022114;28;20068;-71
2021/04/05 16:39:34;;;;;;;7.78;2.22;;;;;;;1.56;66.83;101723.09;5033242;28;20057;-70
2021/04/05 16:42:07;;;;;;;5.47;2.20;;;;;;;1.78;65.16;101734.03;5024867;28;20064;-71
2021/04/05 16:44:38;;;;;;;6.97;2.35;;;;;;;1.87;64.81;101718.38;5028163;28;20064;-70
2021/04/05 16:47:09;;;;;;;7.13;1.88;;;;;;;1.92;65.45;101723.75;5026053;28;20061;-70
2021/04/05 16:49:38;;;;;;;7.47;2.45;;;;;;;1.95;65.37;101732.56;5029652;28;20559;-71
2021/04/05 16:52:08;;;;;;;15.95;2.83;;;;;;;2.07;64.00;101734.53;5028789;28;20068;-70
2021/04/05 16:54:40;;;;;;;16.42;2.30;;;;;;;2.07;65.83;101725.75;5022578;28;20065;-70
2021/04/05 16:57:12;;;;;;;12.15;2.70;;;;;;;2.05;65.69;101717.84;5027014;28;20061;-70
2021/04/05 16:59:47;;;;;;;11.07;2.72;;;;;;;2.03;65.58;101707.28;5023737;28;20073;-71
2021/04/05 17:02:20;;;;;;;12.75;3.08;;;;;;;2.18;62.05;101709.28;5027007;28;20060;-68
2021/04/05 17:04:48;;;;;;;8.15;2.17;;;;;;;2.26;60.63;101727.81;5021501;28;20060;-70
2021/04/05 17:07:24;;;;;;;9.55;2.75;;;;;;;2.28;61.37;101747.16;5029151;28;20065;-70
2021/04/05 17:09:53;;;;;;;4.68;1.80;;;;;;;2.14;62.76;101719.72;5026982;28;20061;-70
2021/04/05 17:12:26;;;;;;;8.88;2.10;;;;;;;2.08;62.24;101722.25;5027693;28;20063;-70
2021/04/05 17:15:05;;;;;;;12.52;2.70;;;;;;;2.03;62.77;101714.28;5009569;28;20065;-70
2021/04/05 17:17:36;;;;;;;8.52;1.90;;;;;;;2.05;62.65;101712.56;5011802;28;20363;-68
2021/04/05 17:20:08;;;;;;;7.53;2.08;;;;;;;2.07;64.15;101707.34;5007542;28;20503;-69
2021/04/05 17:22:37;;;;;;;9.07;2.05;;;;;;;2.17;63.95;101717.16;5017534;28;20053;-68
2021/04/05 17:25:25;;;;;;;18.52;3.28;;;;;;;2.36;62.61;101726.25;5008217;28;20104;-68
2021/04/05 17:27:58;;;;;;;8.65;2.90;;;;;;;2.45;60.90;101722.84;5016942;28;20172;-69
2021/04/05 17:30:35;;;;;;;9.63;2.47;;;;;;;2.41;59.28;101725.44;5006384;28;20383;-68
2021/04/05 17:33:10;;;;;;;8.85;2.63;;;;;;;2.33;60.72;101728.81;5019234;28;20057;-71
2021/04/05 17:35:41;;;;;;;8.02;2.42;;;;;;;2.39;62.40;101734.19;5007529;28;20061;-69
2021/04/05 17:38:13;;;;;;;12.95;2.33;;;;;;;2.45;62.23;101728.13;5016003;28;20073;-70
2021/04/05 17:40:47;;;;;;;8.88;2.28;;;;;;;2.38;62.37;101728.03;5007831;28;20061;-70
2021/04/05 17:43:19;;;;;;;10.38;3.17;;;;;;;2.35;61.87;101737.63;5013452;28;20057;-69
2021/04/05 17:45:48;;;;;;;18.27;2.85;;;;;;;2.34;59.96;101730.59;4999657;28;20061;-70
2021/04/05 17:48:23;;;;;;;9.27;2.20;;;;;;;2.26;60.84;101719.94;5015583;28;20359;-70
2021/04/05 17:51:05;;;;;;;10.52;2.72;;;;;;;2.29;58.92;101713.84;5008637;28;20120;-70
2021/04/05 17:53:46;;;;;;;7.40;2.47;;;;;;;2.31;57.12;101720.00;5015954;28;20440;-70
2021/04/05 17:56:40;;;;;;;9.50;2.40;;;;;;;2.24;58.10;101711.13;5002763;28;20285;-69
2021/04/05 17:59:27;;;;;;;13.40;2.75;;;;;;;2.34;55.77;101720.06;5016698;28;20065;-69
2021/04/05 18:02:20;;;;;;;10.88;2.35;;;;;;;2.32;56.68;101703.34;5007974;28;20991;-69
2021/04/05 18:04:58;;;;;;;9.95;2.72;;;;;;;2.34;56.61;101718.31;5014505;28;20076;-70
2021/04/05 18:07:30;;;;;;;13.00;2.38;;;;;;;2.35;56.58;101719.19;5005657;28;20065;-70
2021/04/05 18:10:15;;;;;;;9.45;2.50;;;;;;;2.37;57.07;101718.34;5015805;28;21113;-70
2021/04/05 18:12:50;;;;;;;4.95;2.75;;;;;;;2.40;57.77;101704.34;5006760;28;20091;-70
2021/04/05 18:15:26;;;;;;;12.90;2.85;;;;;;;2.43;57.87;101705.28;5014508;28;20092;-71
2021/04/05 18:18:15;;;;;;;11.45;2.38;;;;;;;2.39;59.34;101703.47;5008935;28;20150;-70
2021/04/05 18:21:09;;;;;;;6.72;2.38;;;;;;;2.53;57.63;101703.66;5015205;28;20053;-69
2021/04/05 18:23:48;;;;;;;8.60;2.30;;;;;;;2.57;57.16;101683.50;4977472;28;20060;-70
2021/04/05 18:26:28;;;;;;;9.23;3.10;;;;;;;2.65;55.70;101702.09;5012700;28;20053;-70
2021/04/05 18:29:01;;;;;;;6.65;2.00;;;;;;;2.70;55.53;101689.84;5007427;28;20062;-70
2021/04/05 18:31:42;;;;;;;13.03;2.90;;;;;;;2.65;56.72;101687.16;5014100;28;20065;-70
2021/04/05 18:34:19;;;;;;;9.45;2.53;;;;;;;2.60;57.17;101688.81;5025960;28;20053;-70
2021/04/05 18:36:52;;;;;;;9.25;3.00;;;;;;;2.68;55.98;101689.81;5031883;28;20114;-71
2021/04/05 18:39:24;;;;;;;12.02;2.95;;;;;;;2.71;55.49;101684.59;5026013;28;20139;-70
2021/04/05 18:41:52;;;;;;;11.95;3.30;;;;;;;2.73;55.52;101685.50;5030942;28;20157;-71
2021/04/05 18:44:22;;;;;;;5.97;2.10;;;;;;;2.75;56.04;101683.78;5024211;28;20056;-70
2021/04/05 18:46:59;;;;;;;11.48;2.70;;;;;;;2.80;55.13;101681.22;5036189;28;20261;-71
2021/04/05 18:49:30;;;;;;;11.00;2.28;;;;;;;2.89;54.76;101704.16;5026693;28;20065;-72
2021/04/05 18:52:07;;;;;;;4.82;1.58;;;;;;;2.88;56.64;101705.00;5032963;28;20326;-72
2021/04/05 18:54:40;;;;;;;12.40;2.90;;;;;;;2.91;54.97;101690.16;5023228;28;20663;-70
2021/04/05 18:57:10;;;;;;;8.30;1.95;;;;;;;2.85;56.90;101705.00;5032351;28;20065;-69
2021/04/05 18:59:42;;;;;;;12.35;2.90;;;;;;;2.34;65.25;101731.47;5022950;28;20060;-69
2021/04/05 19:02:10;;;;;;;11.48;3.13;;;;;;;2.08;69.82;101740.69;5028615;28;20068;-72
2021/04/05 19:04:45;;;;;;;5.32;2.25;;;;;;;1.74;73.27;101756.78;5006726;28;20152;-70
2021/04/05 19:07:23;;;;;;;6.35;1.88;;;;;;;1.36;76.75;101735.84;5011755;28;20069;-71
2021/04/05 19:10:01;;;;;;;8.65;2.35;;;;;;;1.22;78.45;101730.31;5012697;28;20068;-71
2021/04/05 19:12:51;;;;;;;6.22;2.20;;;;;;;1.14;78.53;101724.00;5011469;28;20050;-70
2021/04/05 19:15:24;;;;;;;5.25;2.00;;;;;;;1.06;78.94;101729.13;5012096;28;20191;-71
2021/04/05 19:18:35;;;;;;;4.35;2.20;;;;;;;1.13;79.32;101717.00;5010895;28;20069;-70
2021/04/05 19:21:07;;;;;;;8.30;3.00;;;;;;;1.15;80.00;101717.03;5012043;28;20100;-71
2021/04/05 19:23:49;;;;;;;11.15;2.58;;;;;;;1.26;80.47;101712.84;5007975;28;20092;-71
2021/04/05 19:26:35;;;;;;;6.10;1.90;;;;;;;1.37;80.08;101708.69;5012693;28;20061;-70
2021/04/05 19:29:17;;;;;;;8.65;2.13;;;;;;;1.38;80.19;101714.84;5010557;28;20061;-70
2021/04/05 19:32:16;;;;;;;6.68;2.03;;;;;;;1.32;79.60;101712.97;5009359;28;20142;-71
2021/04/05 19:35:04;;;;;;;7.10;1.60;;;;;;;1.37;77.86;101718.34;5011287;28;20058;-72
2021/04/05 19:37:46;;;;;;;11.05;1.70;;;;;;;1.39;77.79;101699.09;5007080;28;20057;-72
2021/04/05 19:40:33;;;;;;;7.57;1.75;;;;;;;1.40;77.94;101708.75;5012362;28;20070;-72
2021/04/05 19:43:22;;;;;;;7.78;1.80;;;;;;;1.47;78.75;101707.16;5017833;28;20682;-71
2021/04/05 19:46:08;;;;;;;5.53;2.03;;;;;;;1.53;79.71;101703.72;5014429;28;20482;-70
2021/04/05 19:49:11;;;;;;;6.82;2.42;;;;;;;1.56;80.09;101702.03;5005505;28;20134;-70
2021/04/05 19:52:00;;;;;;;8.38;2.20;;;;;;;1.60;80.13;101685.47;5012458;28;20061;-71
2021/04/05 19:54:42;;;;;;;10.80;2.33;;;;;;;1.67;80.38;101678.59;5008572;28;20081;-71
2021/04/05 19:57:46;;;;;;;9.50;2.70;;;;;;;1.74;79.78;101672.56;5011896;28;20069;-71
2021/04/05 20:00:24;;;;;;;8.18;2.30;;;;;;;1.89;79.35;101673.66;5012838;28;20065;-71
2021/04/05 20:03:12;;;;;;;10.43;3.88;;;;;;;1.94;79.26;101664.09;5012938;28;20063;-71
2021/04/05 20:05:50;;;;;;;9.25;2.45;;;;;;;2.04;78.82;101677.47;5000547;28;20057;-71
2021/04/05 20:08:24;;;;;;;11.98;2.53;;;;;;;2.27;75.66;101658.50;5012306;28;20296;-70
2021/04/05 20:11:00;;;;;;;11.80;3.13;;;;;;;2.32;74.85;101654.19;5017065;28;20141;-70
2021/04/05 20:13:53;;;;;;;9.00;2.45;;;;;;;2.41;73.56;101656.06;5006712;28;21239;-70
2021/04/05 20:16:25;;;;;;;6.70;2.53;;;;;;;2.51;73.49;101665.00;5023185;28;174352;-69
2021/04/05 20:18:57;;;;;;;11.02;3.17;;;;;;;2.53;73.37;101658.88;5027707;28;20447;-70
2021/04/05 20:21:29;;;;;;;8.70;2.85;;;;;;;2.51;73.23;101675.53;5032485;28;20467;-71
2021/04/05 20:24:03;;;;;;;11.52;2.95;;;;;;;2.18;76.29;101679.41;5037599;28;20056;-70
2021/04/05 20:26:34;;;;;;;7.30;2.10;;;;;;;2.00;77.50;101670.38;5026541;28;20068;-69
2021/04/05 20:29:07;;;;;;;10.48;2.53;;;;;;;2.08;77.17;101661.69;5030062;28;20682;-71
2021/04/05 20:31:42;;;;;;;11.18;2.40;;;;;;;2.18;76.16;101653.97;5029734;28;20072;-70
2021/04/05 20:34:34;;;;;;;8.15;1.90;;;;;;;2.20;75.96;101654.88;5030290;28;20563;-71
2021/04/05 20:37:12;;;;;;;7.20;2.25;;;;;;;2.17;76.49;101661.84;5028049;28;20547;-70
2021/04/05 20:39:46;;;;;;;5.63;2.25;;;;;;;1.62;79.36;101682.88;5030412;28;20065;-69
2021/04/05 20:42:22;;;;;;;3.35;1.33;;;;;;;0.99;82.94;101713.16;5030254;28;20360;-69
2021/04/05 20:44:57;;;;;;;3.20;1.35;;;;;;;0.79;83.28;101700.50;5020103;28;20164;-71
2021/04/05 20:47:32;;;;;;;2.08;1.00;;;;;;;0.77;83.03;101688.16;5027858;28;20065;-70
2021/04/05 20:50:06;;;;;;;2.08;1.13;;;;;;;0.59;83.84;101679.03;5028060;28;20183;-72
2021/04/05 20:52:38;;;;;;;1.83;1.00;;;;;;;0.66;84.18;101694.06;5029455;28;20368;-72
2021/04/05 20:55:08;;;;;;;3.42;1.40;;;;;;;0.77;84.08;101667.16;5030812;28;20072;-71
2021/04/05 20:57:42;;;;;;;4.13;1.08;;;;;;;0.86;84.30;101680.50;5030109;28;20183;-72
2021/04/05 21:00:12;;;;;;;4.22;2.17;;;;;;;0.96;84.13;101673.69;5033283;28;20052;-72
2021/04/05 21:02:48;;;;;;;8.02;2.00;;;;;;;1.06;83.11;101670.41;5032111;28;20141;-73
2021/04/05 21:05:19;;;;;;;7.15;1.92;;;;;;;1.15;82.52;101673.22;5031953;28;20059;-72
2021/04/05 21:07:46;;;;;;;8.38;1.45;;;;;;;1.19;82.13;101672.44;5033912;28;20075;-74
2021/04/05 21:10:19;;;;;;;9.13;3.13;;;;;;;1.45;78.88;101675.56;5037367;28;20083;-72
2021/04/05 21:12:51;;;;;;;8.98;2.80;;;;;;;1.66;78.30;101687.31;5038532;28;20477;-73
2021/04/05 21:15:20;;;;;;;7.40;1.98;;;;;;;1.81;77.49;101682.34;5033209;28;20062;-72
2021/04/05 21:17:50;;;;;;;9.73;2.22;;;;;;;1.77;77.16;101695.41;5032752;28;20179;-70
2021/04/05 21:20:27;;;;;;;6.65;2.45;;;;;;;1.70;77.42;101694.41;5027883;28;21402;-70
2021/04/05 21:22:58;;;;;;;7.65;2.33;;;;;;;1.55;78.38;101692.41;5029025;28;20108;-73
2021/04/05 21:25:27;;;;;;;7.28;2.25;;;;;;;1.47;79.41;101689.59;5033013;28;20060;-71
2021/04/05 21:27:57;;;;;;;8.70;2.40;;;;;;;1.54;77.97;101685.34;5031362;28;20057;-72
2021/04/05 21:30:35;;;;;;;6.63;1.58;;;;;;;1.55;78.19;101679.25;5030313;28;20061;-74
2021/04/05 21:33:07;;;;;;;5.28;1.63;;;;;;;1.55;78.96;101678.34;5024272;28;20194;-73
2021/04/05 21:35:42;;;;;;;7.80;2.80;;;;;;;1.53;79.35;101670.41;5034699;28;20639;-71
2021/04/05 21:38:16;;;;;;;8.93;2.88;;;;;;;1.63;78.96;101671.47;5026748;28;20424;-71
2021/04/05 21:40:47;;;;;;;10.25;2.88;;;;;;;1.65;79.29;101669.75;5034746;28;20493;-70
2021/04/05 21:43:23;;;;;;;12.57;2.88;;;;;;;1.75;79.20;101649.75;5028179;28;20181;-71
2021/04/05 21:45:57;;;;;;;4.35;1.70;;;;;;;1.88;79.07;101659.63;5025601;28;20268;-70
2021/04/05 21:48:24;;;;;;;;;;;;;;;1.86;80.04;101670.13;5029485;28;20064;-71
2021/04/05 21:50:55;;;;;;;13.55;2.78;;;;;;;1.93;79.88;101660.59;5036503;28;20294;-71
2021/04/05 21:53:31;;;;;;;11.95;3.35;;;;;;;1.97;79.61;101662.41;5027221;28;20154;-70
2021/04/05 21:56:04;;;;;;;10.65;3.05;;;;;;;1.94;79.63;101666.75;5035962;28;20060;-71
2021/04/05 21:58:36;;;;;;;6.88;2.15;;;;;;;1.95;78.86;101671.16;5027142;28;20184;-70
2021/04/05 22:01:03;;;;;;;14.55;3.05;;;;;;;1.90;78.45;101667.56;5037853;28;20478;-71
2021/04/05 22:03:33;;;;;;;11.00;2.30;;;;;;;1.86;78.21;101678.03;5025453;28;21031;-72
2021/04/05 22:06:01;;;;;;;8.95;2.42;;;;;;;1.86;77.88;101675.41;5038340;28;20458;-70
2021/04/05 22:08:29;;;;;;;6.47;2.22;;;;;;;1.89;77.92;101676.31;5027713;28;20060;-71
2021/04/05 22:10:59;;;;;;;7.65;2.28;;;;;;;1.85;77.92;101678.00;5035922;28;20069;-71
2021/04/05 22:13:27;;;;;;;12.52;2.38;;;;;;;1.89;77.19;101673.66;5030963;28;20057;-71
2021/04/05 22:15:56;;;;;;;9.55;2.90;;;;;;;1.89;77.17;101679.84;5031319;28;20283;-71
2021/04/05 22:18:26;;;;;;;14.30;3.85;;;;;;;1.88;77.51;101678.06;5032015;28;20049;-71
2021/04/05 22:20:56;;;;;;;11.70;2.53;;;;;;;1.86;77.77;101677.16;5031340;28;20063;-70
2021/04/05 22:23:26;;;;;;;13.80;3.08;;;;;;;1.98;77.07;101672.09;5031791;28;20435;-70
2021/04/05 22:25:53;;;;;;;9.05;2.85;;;;;;;1.98;77.13;101665.94;5030434;28;20680;-70
2021/04/05 22:28:33;;;;;;;13.63;2.78;;;;;;;2.00;77.60;101670.38;5033191;28;20443;-70
2021/04/05 22:31:11;;;;;;;13.55;2.63;;;;;;;2.08;77.29;101681.03;5028306;28;20175;-70
2021/04/05 22:33:40;;;;;;;10.63;2.78;;;;;;;2.04;77.98;101681.81;5034778;28;20968;-71
2021/04/05 22:36:10;;;;;;;13.60;3.28;;;;;;;2.06;78.18;101677.50;5027700;28;20073;-72
2021/04/05 22:38:47;;;;;;;10.90;3.63;;;;;;;2.18;76.33;101682.03;5034475;28;20065;-72
2021/04/05 22:41:25;;;;;;;11.85;2.97;;;;;;;2.21;74.82;101695.25;5030222;28;20057;-72
2021/04/05 22:43:54;;;;;;;8.65;2.38;;;;;;;2.31;71.89;101699.81;5031996;28;20053;-70
2021/04/05 22:46:23;;;;;;;9.77;2.70;;;;;;;2.28;71.92;101690.97;5033640;28;20380;-72
2021/04/05 22:48:51;;;;;;;16.20;2.60;;;;;;;2.26;72.21;101695.34;5031002;28;20141;-71
2021/04/05 22:51:19;;;;;;;14.48;2.67;;;;;;;2.40;70.72;101702.59;5031727;28;20152;-70
2021/04/05 22:53:50;;;;;;;7.75;2.20;;;;;;;2.46;71.34;101696.53;5031329;28;20061;-70
2021/04/05 22:56:27;;;;;;;11.25;2.30;;;;;;;2.48;71.41;101693.94;5031436;28;22651;-71
2021/04/05 22:59:05;;;;;;;16.13;3.70;;;;;;;2.62;69.70;101689.72;5032440;28;20147;-70
2021/04/05 23:01:33;;;;;;;14.73;3.00;;;;;;;2.57;70.06;101686.16;5031286;28;20075;-71
2021/04/05 23:04:00;;;;;;;17.45;3.85;;;;;;;2.62;68.45;101695.00;5030930;28;20053;-70
2021/04/05 23:06:27;;;;;;;14.63;2.85;;;;;;;2.72;67.12;101685.47;5031659;28;20061;-70
2021/04/05 23:08:58;;;;;;;10.60;3.10;;;;;;;2.64;68.17;101695.94;5029470;28;20178;-70
2021/04/05 23:11:32;;;;;;;14.70;3.72;;;;;;;2.75;66.56;101696.94;5035145;28;20060;-69
2021/04/05 23:14:01;;;;;;;;;;;;;;;2.75;66.69;101681.13;5029173;28;20057;-69
2021/04/05 23:16:41;;;;;;;11.65;2.38;;;;;;;2.84;65.20;101683.00;5031922;28;19931;-69
2021/04/05 23:19:10;;;;;;;9.23;2.53;;;;;;;2.87;63.31;101701.50;5028088;28;20090;-68
2021/04/05 23:21:43;;;;;;;9.45;2.42;;;;;;;2.87;61.95;101703.25;5034282;28;20116;-69
2021/04/05 23:24:15;;;;;;;9.18;2.45;;;;;;;2.77;62.09;101700.47;5026246;28;20064;-69
2021/04/05 23:26:46;;;;;;;14.35;2.85;;;;;;;2.86;63.60;101709.38;5035401;28;20064;-70
2021/04/05 23:29:23;;;;;;;10.65;3.42;;;;;;;2.80;64.44;101708.44;5023842;28;20259;-70
2021/04/05 23:31:53;;;;;;;14.02;3.08;;;;;;;2.92;64.17;101693.66;5036378;28;20069;-70
2021/04/05 23:34:28;;;;;;;9.35;2.33;;;;;;;2.89;64.29;101710.31;5025592;28;20060;-70
2021/04/05 23:36:58;;;;;;;20.35;3.47;;;;;;;2.86;64.99;101712.03;5031901;28;20065;-70
2021/04/05 23:39:37;;;;;;;10.57;2.55;;;;;;;2.92;63.82;101704.22;5022133;28;20069;-69
2021/04/05 23:42:11;;;;;;;10.45;2.22;;;;;;;2.96;63.15;101695.47;5035896;28;20190;-68
2021/04/05 23:44:39;;;;;;;9.75;2.53;;;;;;;3.13;60.74;101698.31;5025012;28;20061;-71
2021/04/05 23:47:07;;;;;;;4.10;1.50;;;;;;;3.06;61.19;101691.19;5037136;28;20065;-72
2021/04/05 23:49:35;;;;;;;9.27;2.65;;;;;;;3.24;59.67;101687.91;5025991;28;20061;-72
2021/04/05 23:52:06;;;;;;;9.23;2.78;;;;;;;3.27;60.25;101696.75;5032754;28;20057;-71
2021/04/05 23:54:35;;;;;;;11.20;2.88;;;;;;;3.24;60.60;101693.19;5025551;28;20060;-73
2021/04/05 23:57:04;;;;;;;10.38;2.65;;;;;;;3.23;60.30;101707.22;5035615;28;20061;-72
2021/04/05 23:59:34;;;;;;;14.13;2.92;;;;;;;3.12;65.13;101717.66;5025814;28;20177;-71
